sensor_id;sensor_type;location;lat;lon;timestamp;P1;durP1;ratioP1;P2;durP2;ratioP2
11847;SDS011;5983;49.966;8.052;2023-03-22T00:01:24;12.87;;;7.57;;
11847;SDS011;5983;49.966;8.052;2023-03-22T00:03:52;10.67;;;7.77;;
11847;SDS011;5983;49.966;8.052;2023-03-22T00:06:19;12.53;;;8.30;;
11847;SDS011;5983;49.966;8.052;2023-03-22T00:08:47;15.87;;;8.40;;
11847;SDS011;5983;49.966;8.052;2023-03-22T00:11:16;15.13;;;8.40;;
11847;SDS011;5983;49.966;8.052;2023-03-22T00:13:44;12.43;;;7.73;;
11847;SDS011;5983;49.966;8.052;2023-03-22T00:16:11;12.67;;;7.97;;
11847;SDS011;5983;49.966;8.052;2023-03-22T00:18:41;11.37;;;7.70;;
11847;SDS011;5983;49.966;8.052;2023-03-22T00:21:09;12.93;;;8.20;;
11847;SDS011;5983;49.966;8.052;2023-03-22T00:23:38;15.63;;;8.13;;
11847;SDS011;5983;49.966;8.052;2023-03-22T00:26:06;13.57;;;8.43;;
11847;SDS011;5983;49.966;8.052;2023-03-22T00:28:34;12.97;;;8.87;;
11847;SDS011;5983;49.966;8.052;2023-03-22T00:31:02;15.13;;;9.33;;
11847;SDS011;5983;49.966;8.052;2023-03-22T00:33:31;13.60;;;8.63;;
11847;SDS011;5983;49.966;8.052;2023-03-22T00:36:00;16.48;;;10.70;;
11847;SDS011;5983;49.966;8.052;2023-03-22T00:53:25;15.52;;;11.80;;
11847;SDS011;5983;49.966;8.052;2023-03-22T00:55:54;16.33;;;10.93;;
11847;SDS011;5983;49.966;8.052;2023-03-22T00:58:21;14.70;;;10.33;;
11847;SDS011;5983;49.966;8.052;2023-03-22T01:00:48;13.43;;;9.30;;
11847;SDS011;5983;49.966;8.052;2023-03-22T01:03:16;16.27;;;10.13;;
11847;SDS011;5983;49.966;8.052;2023-03-22T01:05:43;14.30;;;10.00;;
11847;SDS011;5983;49.966;8.052;2023-03-22T01:08:11;15.67;;;10.83;;
11847;SDS011;5983;49.966;8.052;2023-03-22T01:10:40;15.27;;;10.03;;
11847;SDS011;5983;49.966;8.052;2023-03-22T01:13:09;14.40;;;9.87;;
11847;SDS011;5983;49.966;8.052;2023-03-22T01:15:37;16.77;;;11.10;;
11847;SDS011;5983;49.966;8.052;2023-03-22T01:18:05;13.67;;;9.83;;
11847;SDS011;5983;49.966;8.052;2023-03-22T01:20:33;14.63;;;9.87;;
11847;SDS011;5983;49.966;8.052;2023-03-22T01:23:01;16.13;;;10.03;;
11847;SDS011;5983;49.966;8.052;2023-03-22T01:25:29;12.93;;;8.93;;
11847;SDS011;5983;49.966;8.052;2023-03-22T01:27:57;11.50;;;9.27;;
11847;SDS011;5983;49.966;8.052;2023-03-22T01:30:26;11.50;;;9.00;;
11847;SDS011;5983;49.966;8.052;2023-03-22T01:32:53;10.87;;;9.10;;
11847;SDS011;5983;49.966;8.052;2023-03-22T01:35:20;10.13;;;8.50;;
11847;SDS011;5983;49.966;8.052;2023-03-22T01:37:47;11.50;;;8.80;;
11847;SDS011;5983;49.966;8.052;2023-03-22T01:40:15;10.20;;;8.17;;
11847;SDS011;5983;49.966;8.052;2023-03-22T01:42:42;11.77;;;8.83;;
11847;SDS011;5983;49.966;8.052;2023-03-22T01:45:24;11.30;;;8.60;;
11847;SDS011;5983;49.966;8.052;2023-03-22T01:48:09;10.67;;;8.43;;
11847;SDS011;5983;49.966;8.052;2023-03-22T01:51:02;11.57;;;7.57;;
11847;SDS011;5983;49.966;8.052;2023-03-22T01:53:35;11.57;;;8.07;;
11847;SDS011;5983;49.966;8.052;2023-03-22T01:56:08;9.43;;;7.83;;
11847;SDS011;5983;49.966;8.052;2023-03-22T01:58:36;9.53;;;7.80;;
11847;SDS011;5983;49.966;8.052;2023-03-22T02:01:06;11.03;;;8.00;;
11847;SDS011;5983;49.966;8.052;2023-03-22T02:03:37;10.57;;;8.77;;
11847;SDS011;5983;49.966;8.052;2023-03-22T02:06:12;9.77;;;7.73;;
11847;SDS011;5983;49.966;8.052;2023-03-22T02:08:39;9.73;;;7.87;;
11847;SDS011;5983;49.966;8.052;2023-03-22T02:11:06;10.60;;;8.17;;
11847;SDS011;5983;49.966;8.052;2023-03-22T02:13:46;10.47;;;8.00;;
11847;SDS011;5983;49.966;8.052;2023-03-22T02:17:00;9.20;;;7.37;;
11847;SDS011;5983;49.966;8.052;2023-03-22T02:23:25;8.93;;;7.37;;
11847;SDS011;5983;49.966;8.052;2023-03-22T02:26:32;11.97;;;7.40;;
11847;SDS011;5983;49.966;8.052;2023-03-22T02:29:40;10.33;;;7.67;;
11847;SDS011;5983;49.966;8.052;2023-03-22T02:35:55;13.43;;;7.50;;
11847;SDS011;5983;49.966;8.052;2023-03-22T02:38:54;9.73;;;7.47;;
11847;SDS011;5983;49.966;8.052;2023-03-22T02:41:50;10.43;;;8.17;;
11847;SDS011;5983;49.966;8.052;2023-03-22T02:44:34;9.83;;;7.87;;
11847;SDS011;5983;49.966;8.052;2023-03-22T02:47:09;9.97;;;8.17;;
11847;SDS011;5983;49.966;8.052;2023-03-22T02:49:49;10.90;;;8.30;;
11847;SDS011;5983;49.966;8.052;2023-03-22T02:52:24;10.90;;;8.30;;
11847;SDS011;5983;49.966;8.052;2023-03-22T02:55:05;9.23;;;7.47;;
11847;SDS011;5983;49.966;8.052;2023-03-22T02:57:40;10.43;;;8.77;;
11847;SDS011;5983;49.966;8.052;2023-03-22T03:00:12;10.47;;;8.17;;
11847;SDS011;5983;49.966;8.052;2023-03-22T03:02:43;9.53;;;7.77;;
11847;SDS011;5983;49.966;8.052;2023-03-22T03:05:14;11.73;;;8.07;;
11847;SDS011;5983;49.966;8.052;2023-03-22T03:07:45;9.87;;;7.53;;
11847;SDS011;5983;49.966;8.052;2023-03-22T03:10:21;10.77;;;7.60;;
11847;SDS011;5983;49.966;8.052;2023-03-22T03:12:50;9.17;;;6.97;;
11847;SDS011;5983;49.966;8.052;2023-03-22T03:15:17;8.53;;;7.03;;
11847;SDS011;5983;49.966;8.052;2023-03-22T03:17:53;12.90;;;7.13;;
11847;SDS011;5983;49.966;8.052;2023-03-22T03:20:43;9.07;;;7.57;;
11847;SDS011;5983;49.966;8.052;2023-03-22T03:23:27;7.57;;;6.73;;
11847;SDS011;5983;49.966;8.052;2023-03-22T03:26:08;7.30;;;6.60;;
11847;SDS011;5983;49.966;8.052;2023-03-22T03:28:46;7.70;;;6.30;;
11847;SDS011;5983;49.966;8.052;2023-03-22T03:31:22;7.77;;;6.90;;
11847;SDS011;5983;49.966;8.052;2023-03-22T03:34:02;9.43;;;6.87;;
11847;SDS011;5983;49.966;8.052;2023-03-22T03:36:39;8.70;;;6.87;;
11847;SDS011;5983;49.966;8.052;2023-03-22T03:39:14;9.27;;;6.77;;
11847;SDS011;5983;49.966;8.052;2023-03-22T03:41:47;8.23;;;6.73;;
11847;SDS011;5983;49.966;8.052;2023-03-22T03:44:18;7.77;;;6.80;;
11847;SDS011;5983;49.966;8.052;2023-03-22T03:46:45;8.00;;;6.57;;
11847;SDS011;5983;49.966;8.052;2023-03-22T03:49:14;8.63;;;6.90;;
11847;SDS011;5983;49.966;8.052;2023-03-22T03:51:45;8.53;;;7.10;;
11847;SDS011;5983;49.966;8.052;2023-03-22T03:54:15;8.30;;;6.80;;
11847;SDS011;5983;49.966;8.052;2023-03-22T03:56:42;7.83;;;6.83;;
11847;SDS011;5983;49.966;8.052;2023-03-22T03:59:13;8.60;;;7.07;;
11847;SDS011;5983;49.966;8.052;2023-03-22T04:01:40;8.67;;;6.90;;
11847;SDS011;5983;49.966;8.052;2023-03-22T04:04:14;7.87;;;6.90;;
11847;SDS011;5983;49.966;8.052;2023-03-22T04:06:42;9.70;;;7.83;;
11847;SDS011;5983;49.966;8.052;2023-03-22T04:09:09;8.97;;;7.07;;
11847;SDS011;5983;49.966;8.052;2023-03-22T04:11:36;9.43;;;7.07;;
11847;SDS011;5983;49.966;8.052;2023-03-22T04:14:03;8.00;;;6.87;;
11847;SDS011;5983;49.966;8.052;2023-03-22T04:16:31;9.30;;;7.37;;
11847;SDS011;5983;49.966;8.052;2023-03-22T04:18:58;12.33;;;7.57;;
11847;SDS011;5983;49.966;8.052;2023-03-22T04:21:25;8.00;;;7.20;;
11847;SDS011;5983;49.966;8.052;2023-03-22T04:23:52;24.97;;;7.60;;
11847;SDS011;5983;49.966;8.052;2023-03-22T04:26:19;8.97;;;7.50;;
11847;SDS011;5983;49.966;8.052;2023-03-22T04:28:46;15.23;;;7.93;;
11847;SDS011;5983;49.966;8.052;2023-03-22T04:31:13;11.00;;;7.60;;
11847;SDS011;5983;49.966;8.052;2023-03-22T04:33:43;9.17;;;7.50;;
11847;SDS011;5983;49.966;8.052;2023-03-22T04:36:11;8.47;;;7.00;;
11847;SDS011;5983;49.966;8.052;2023-03-22T04:38:41;8.17;;;6.87;;
11847;SDS011;5983;49.966;8.052;2023-03-22T04:41:09;8.13;;;6.63;;
11847;SDS011;5983;49.966;8.052;2023-03-22T04:43:36;8.30;;;6.67;;
11847;SDS011;5983;49.966;8.052;2023-03-22T04:46:03;8.53;;;6.67;;
11847;SDS011;5983;49.966;8.052;2023-03-22T04:48:34;7.97;;;7.17;;
11847;SDS011;5983;49.966;8.052;2023-03-22T04:51:03;7.57;;;6.60;;
11847;SDS011;5983;49.966;8.052;2023-03-22T04:53:30;7.57;;;6.77;;
11847;SDS011;5983;49.966;8.052;2023-03-22T04:56:02;8.00;;;6.27;;
11847;SDS011;5983;49.966;8.052;2023-03-22T04:58:32;7.03;;;6.00;;
11847;SDS011;5983;49.966;8.052;2023-03-22T05:01:01;8.40;;;6.80;;
11847;SDS011;5983;49.966;8.052;2023-03-22T05:03:28;8.73;;;6.10;;
11847;SDS011;5983;49.966;8.052;2023-03-22T05:05:55;8.53;;;6.27;;
11847;SDS011;5983;49.966;8.052;2023-03-22T05:08:26;6.00;;;5.40;;
11847;SDS011;5983;49.966;8.052;2023-03-22T05:10:55;6.10;;;5.50;;
11847;SDS011;5983;49.966;8.052;2023-03-22T05:13:26;20.17;;;5.47;;
11847;SDS011;5983;49.966;8.052;2023-03-22T05:15:53;6.23;;;5.50;;
11847;SDS011;5983;49.966;8.052;2023-03-22T05:18:20;6.20;;;4.90;;
11847;SDS011;5983;49.966;8.052;2023-03-22T05:20:50;22.13;;;5.57;;
11847;SDS011;5983;49.966;8.052;2023-03-22T05:23:20;6.47;;;5.50;;
11847;SDS011;5983;49.966;8.052;2023-03-22T05:25:49;6.03;;;5.43;;
11847;SDS011;5983;49.966;8.052;2023-03-22T05:28:18;5.83;;;5.23;;
11847;SDS011;5983;49.966;8.052;2023-03-22T05:30:46;5.53;;;4.93;;
11847;SDS011;5983;49.966;8.052;2023-03-22T05:33:13;7.97;;;5.10;;
11847;SDS011;5983;49.966;8.052;2023-03-22T05:35:41;21.47;;;5.20;;
11847;SDS011;5983;49.966;8.052;2023-03-22T05:38:08;9.93;;;5.60;;
11847;SDS011;5983;49.966;8.052;2023-03-22T05:40:36;5.83;;;5.17;;
11847;SDS011;5983;49.966;8.052;2023-03-22T05:43:04;9.90;;;5.37;;
11847;SDS011;5983;49.966;8.052;2023-03-22T05:45:31;6.13;;;5.53;;
11847;SDS011;5983;49.966;8.052;2023-03-22T05:48:01;6.47;;;5.83;;
11847;SDS011;5983;49.966;8.052;2023-03-22T05:50:27;6.30;;;5.40;;
11847;SDS011;5983;49.966;8.052;2023-03-22T05:52:54;6.53;;;5.77;;
11847;SDS011;5983;49.966;8.052;2023-03-22T05:55:21;6.97;;;5.37;;
11847;SDS011;5983;49.966;8.052;2023-03-22T05:57:48;6.20;;;5.03;;
11847;SDS011;5983;49.966;8.052;2023-03-22T06:00:19;5.50;;;4.80;;
11847;SDS011;5983;49.966;8.052;2023-03-22T06:02:48;5.47;;;4.53;;
11847;SDS011;5983;49.966;8.052;2023-03-22T06:05:20;4.53;;;4.10;;
11847;SDS011;5983;49.966;8.052;2023-03-22T06:07:48;4.53;;;4.13;;
11847;SDS011;5983;49.966;8.052;2023-03-22T06:10:15;4.70;;;4.20;;
11847;SDS011;5983;49.966;8.052;2023-03-22T06:12:42;5.43;;;4.80;;
11847;SDS011;5983;49.966;8.052;2023-03-22T06:15:10;5.37;;;4.83;;
11847;SDS011;5983;49.966;8.052;2023-03-22T06:17:38;5.37;;;4.87;;
11847;SDS011;5983;49.966;8.052;2023-03-22T06:20:07;6.57;;;4.80;;
11847;SDS011;5983;49.966;8.052;2023-03-22T06:22:38;5.23;;;4.73;;
11847;SDS011;5983;49.966;8.052;2023-03-22T06:25:06;5.63;;;4.93;;
11847;SDS011;5983;49.966;8.052;2023-03-22T06:27:35;5.83;;;4.90;;
11847;SDS011;5983;49.966;8.052;2023-03-22T06:30:02;7.03;;;5.67;;
11847;SDS011;5983;49.966;8.052;2023-03-22T06:32:29;9.97;;;7.17;;
11847;SDS011;5983;49.966;8.052;2023-03-22T06:34:57;8.70;;;6.90;;
11847;SDS011;5983;49.966;8.052;2023-03-22T06:37:24;8.13;;;7.30;;
11847;SDS011;5983;49.966;8.052;2023-03-22T06:39:51;7.80;;;7.00;;
11847;SDS011;5983;49.966;8.052;2023-03-22T06:42:18;7.43;;;6.70;;
11847;SDS011;5983;49.966;8.052;2023-03-22T06:44:45;5.47;;;4.97;;
11847;SDS011;5983;49.966;8.052;2023-03-22T06:47:12;6.23;;;5.63;;
11847;SDS011;5983;49.966;8.052;2023-03-22T06:49:39;6.27;;;5.47;;
11847;SDS011;5983;49.966;8.052;2023-03-22T06:52:07;6.57;;;5.17;;
11847;SDS011;5983;49.966;8.052;2023-03-22T06:54:34;7.47;;;4.97;;
11847;SDS011;5983;49.966;8.052;2023-03-22T06:57:01;5.23;;;4.60;;
11847;SDS011;5983;49.966;8.052;2023-03-22T06:59:28;5.00;;;4.47;;
11847;SDS011;5983;49.966;8.052;2023-03-22T07:01:55;5.23;;;4.73;;
11847;SDS011;5983;49.966;8.052;2023-03-22T07:04:22;5.67;;;4.93;;
11847;SDS011;5983;49.966;8.052;2023-03-22T07:06:49;6.00;;;5.43;;
11847;SDS011;5983;49.966;8.052;2023-03-22T07:09:18;4.90;;;4.50;;
11847;SDS011;5983;49.966;8.052;2023-03-22T07:11:44;5.03;;;4.47;;
11847;SDS011;5983;49.966;8.052;2023-03-22T07:14:11;4.50;;;4.10;;
11847;SDS011;5983;49.966;8.052;2023-03-22T07:16:38;4.10;;;3.70;;
11847;SDS011;5983;49.966;8.052;2023-03-22T07:19:05;4.23;;;3.70;;
11847;SDS011;5983;49.966;8.052;2023-03-22T07:21:32;4.23;;;3.37;;
11847;SDS011;5983;49.966;8.052;2023-03-22T07:23:59;3.50;;;3.20;;
11847;SDS011;5983;49.966;8.052;2023-03-22T07:26:28;3.53;;;3.23;;
11847;SDS011;5983;49.966;8.052;2023-03-22T07:28:55;3.63;;;3.30;;
11847;SDS011;5983;49.966;8.052;2023-03-22T07:31:22;3.53;;;2.77;;
11847;SDS011;5983;49.966;8.052;2023-03-22T07:33:49;4.90;;;2.47;;
11847;SDS011;5983;49.966;8.052;2023-03-22T07:36:16;3.37;;;2.70;;
11847;SDS011;5983;49.966;8.052;2023-03-22T07:38:47;3.33;;;2.40;;
11847;SDS011;5983;49.966;8.052;2023-03-22T07:41:15;4.40;;;2.43;;
11847;SDS011;5983;49.966;8.052;2023-03-22T07:43:44;3.73;;;2.70;;
11847;SDS011;5983;49.966;8.052;2023-03-22T07:46:11;3.37;;;3.07;;
11847;SDS011;5983;49.966;8.052;2023-03-22T07:48:38;3.30;;;3.00;;
11847;SDS011;5983;49.966;8.052;2023-03-22T07:51:05;3.30;;;3.00;;
11847;SDS011;5983;49.966;8.052;2023-03-22T07:53:32;3.03;;;2.70;;
11847;SDS011;5983;49.966;8.052;2023-03-22T07:56:00;3.23;;;2.93;;
11847;SDS011;5983;49.966;8.052;2023-03-22T07:58:28;3.47;;;2.87;;
11847;SDS011;5983;49.966;8.052;2023-03-22T08:00:56;3.30;;;2.70;;
11847;SDS011;5983;49.966;8.052;2023-03-22T08:03:29;5.20;;;2.97;;
11847;SDS011;5983;49.966;8.052;2023-03-22T08:05:58;5.20;;;3.00;;
11847;SDS011;5983;49.966;8.052;2023-03-22T08:08:30;3.57;;;2.80;;
11847;SDS011;5983;49.966;8.052;2023-03-22T08:10:57;4.50;;;3.20;;
11847;SDS011;5983;49.966;8.052;2023-03-22T08:13:24;4.63;;;3.73;;
11847;SDS011;5983;49.966;8.052;2023-03-22T08:15:51;3.67;;;3.37;;
11847;SDS011;5983;49.966;8.052;2023-03-22T08:18:19;3.97;;;3.53;;
11847;SDS011;5983;49.966;8.052;2023-03-22T08:20:51;3.80;;;3.50;;
11847;SDS011;5983;49.966;8.052;2023-03-22T08:23:19;6.00;;;3.80;;
11847;SDS011;5983;49.966;8.052;2023-03-22T08:25:45;3.87;;;3.50;;
11847;SDS011;5983;49.966;8.052;2023-03-22T08:28:12;4.37;;;3.70;;
11847;SDS011;5983;49.966;8.052;2023-03-22T08:30:40;6.90;;;3.70;;
11847;SDS011;5983;49.966;8.052;2023-03-22T08:33:07;6.20;;;4.30;;
11847;SDS011;5983;49.966;8.052;2023-03-22T08:35:38;5.83;;;4.40;;
11847;SDS011;5983;49.966;8.052;2023-03-22T08:38:06;4.30;;;3.47;;
11847;SDS011;5983;49.966;8.052;2023-03-22T08:40:33;4.03;;;3.47;;
11847;SDS011;5983;49.966;8.052;2023-03-22T08:43:00;4.13;;;3.50;;
11847;SDS011;5983;49.966;8.052;2023-03-22T08:45:27;5.07;;;3.80;;
11847;SDS011;5983;49.966;8.052;2023-03-22T08:47:53;4.93;;;4.00;;
11847;SDS011;5983;49.966;8.052;2023-03-22T08:50:22;6.80;;;4.23;;
11847;SDS011;5983;49.966;8.052;2023-03-22T08:52:50;4.27;;;3.50;;
11847;SDS011;5983;49.966;8.052;2023-03-22T08:55:17;4.87;;;3.90;;
11847;SDS011;5983;49.966;8.052;2023-03-22T08:57:44;6.20;;;4.43;;
11847;SDS011;5983;49.966;8.052;2023-03-22T09:00:14;5.13;;;3.70;;
11847;SDS011;5983;49.966;8.052;2023-03-22T09:02:43;5.00;;;3.53;;
11847;SDS011;5983;49.966;8.052;2023-03-22T09:05:11;4.30;;;3.30;;
11847;SDS011;5983;49.966;8.052;2023-03-22T09:07:39;4.33;;;3.10;;
11847;SDS011;5983;49.966;8.052;2023-03-22T09:10:08;5.53;;;3.10;;
11847;SDS011;5983;49.966;8.052;2023-03-22T09:12:36;5.57;;;2.80;;
11847;SDS011;5983;49.966;8.052;2023-03-22T09:15:04;5.23;;;2.40;;
11847;SDS011;5983;49.966;8.052;2023-03-22T09:17:32;4.43;;;2.90;;
11847;SDS011;5983;49.966;8.052;2023-03-22T09:19:59;3.93;;;1.93;;
11847;SDS011;5983;49.966;8.052;2023-03-22T09:22:26;5.27;;;1.80;;
11847;SDS011;5983;49.966;8.052;2023-03-22T09:24:53;6.30;;;1.93;;
11847;SDS011;5983;49.966;8.052;2023-03-22T09:27:21;4.23;;;1.93;;
11847;SDS011;5983;49.966;8.052;2023-03-22T09:29:48;1.90;;;1.67;;
11847;SDS011;5983;49.966;8.052;2023-03-22T09:32:16;2.40;;;1.47;;
11847;SDS011;5983;49.966;8.052;2023-03-22T09:34:43;4.10;;;1.47;;
11847;SDS011;5983;49.966;8.052;2023-03-22T09:37:10;1.93;;;1.20;;
11847;SDS011;5983;49.966;8.052;2023-03-22T09:39:38;7.67;;;1.60;;
11847;SDS011;5983;49.966;8.052;2023-03-22T09:42:12;2.47;;;1.27;;
11847;SDS011;5983;49.966;8.052;2023-03-22T09:44:54;4.20;;;1.20;;
11847;SDS011;5983;49.966;8.052;2023-03-22T09:47:26;3.23;;;1.17;;
11847;SDS011;5983;49.966;8.052;2023-03-22T09:50:04;2.60;;;1.33;;
11847;SDS011;5983;49.966;8.052;2023-03-22T09:52:40;5.80;;;1.20;;
11847;SDS011;5983;49.966;8.052;2023-03-22T09:55:10;2.50;;;1.00;;
11847;SDS011;5983;49.966;8.052;2023-03-22T09:57:47;2.27;;;1.03;;
11847;SDS011;5983;49.966;8.052;2023-03-22T10:00:29;1.37;;;1.10;;
11847;SDS011;5983;49.966;8.052;2023-03-22T10:03:08;2.57;;;0.80;;
11847;SDS011;5983;49.966;8.052;2023-03-22T10:05:53;1.50;;;0.77;;
11847;SDS011;5983;49.966;8.052;2023-03-22T10:08:35;1.20;;;0.70;;
11847;SDS011;5983;49.966;8.052;2023-03-22T10:11:14;1.20;;;0.87;;
11847;SDS011;5983;49.966;8.052;2023-03-22T10:13:56;4.43;;;1.40;;
11847;SDS011;5983;49.966;8.052;2023-03-22T10:16:31;1.60;;;0.83;;
11847;SDS011;5983;49.966;8.052;2023-03-22T10:19:03;3.30;;;0.83;;
11847;SDS011;5983;49.966;8.052;2023-03-22T10:21:38;2.23;;;1.10;;
11847;SDS011;5983;49.966;8.052;2023-03-22T10:24:07;1.83;;;1.00;;
11847;SDS011;5983;49.966;8.052;2023-03-22T10:26:43;2.30;;;0.97;;
11847;SDS011;5983;49.966;8.052;2023-03-22T10:29:14;3.07;;;1.17;;
11847;SDS011;5983;49.966;8.052;2023-03-22T10:31:48;2.10;;;0.93;;
11847;SDS011;5983;49.966;8.052;2023-03-22T10:34:18;1.03;;;0.80;;
11847;SDS011;5983;49.966;8.052;2023-03-22T10:36:49;2.23;;;0.90;;
11847;SDS011;5983;49.966;8.052;2023-03-22T10:39:23;1.33;;;0.70;;
11847;SDS011;5983;49.966;8.052;2023-03-22T10:41:55;4.67;;;1.13;;
11847;SDS011;5983;49.966;8.052;2023-03-22T10:44:28;1.33;;;0.80;;
11847;SDS011;5983;49.966;8.052;2023-03-22T10:47:12;1.67;;;0.83;;
11847;SDS011;5983;49.966;8.052;2023-03-22T10:49:43;0.97;;;0.77;;
11847;SDS011;5983;49.966;8.052;2023-03-22T10:52:23;3.70;;;0.87;;
11847;SDS011;5983;49.966;8.052;2023-03-22T10:55:05;0.80;;;0.80;;
11847;SDS011;5983;49.966;8.052;2023-03-22T10:57:37;1.77;;;0.80;;
11847;SDS011;5983;49.966;8.052;2023-03-22T11:00:09;2.43;;;0.60;;
11847;SDS011;5983;49.966;8.052;2023-03-22T11:02:43;0.80;;;0.73;;
11847;SDS011;5983;49.966;8.052;2023-03-22T11:05:21;1.07;;;0.80;;
11847;SDS011;5983;49.966;8.052;2023-03-22T11:07:50;1.40;;;0.80;;
11847;SDS011;5983;49.966;8.052;2023-03-22T11:10:19;1.30;;;0.93;;
11847;SDS011;5983;49.966;8.052;2023-03-22T11:12:53;2.20;;;0.80;;
11847;SDS011;5983;49.966;8.052;2023-03-22T11:15:39;3.17;;;0.60;;
11847;SDS011;5983;49.966;8.052;2023-03-22T11:18:16;2.67;;;0.87;;
11847;SDS011;5983;49.966;8.052;2023-03-22T11:20:51;1.13;;;0.70;;
11847;SDS011;5983;49.966;8.052;2023-03-22T11:23:23;3.47;;;0.80;;
11847;SDS011;5983;49.966;8.052;2023-03-22T11:25:54;2.00;;;0.90;;
11847;SDS011;5983;49.966;8.052;2023-03-22T11:28:26;1.43;;;0.70;;
11847;SDS011;5983;49.966;8.052;2023-03-22T11:31:02;0.50;;;0.40;;
11847;SDS011;5983;49.966;8.052;2023-03-22T11:33:32;1.20;;;0.60;;
11847;SDS011;5983;49.966;8.052;2023-03-22T11:36:01;2.97;;;1.20;;
11847;SDS011;5983;49.966;8.052;2023-03-22T11:38:34;2.67;;;0.70;;
11847;SDS011;5983;49.966;8.052;2023-03-22T11:41:05;0.90;;;0.63;;
11847;SDS011;5983;49.966;8.052;2023-03-22T11:43:37;1.40;;;0.70;;
11847;SDS011;5983;49.966;8.052;2023-03-22T11:46:09;1.20;;;0.70;;
11847;SDS011;5983;49.966;8.052;2023-03-22T11:48:37;1.20;;;0.70;;
11847;SDS011;5983;49.966;8.052;2023-03-22T11:51:08;2.53;;;0.90;;
11847;SDS011;5983;49.966;8.052;2023-03-22T11:53:39;1.93;;;0.70;;
11847;SDS011;5983;49.966;8.052;2023-03-22T11:56:09;1.77;;;0.50;;
11847;SDS011;5983;49.966;8.052;2023-03-22T11:58:43;0.50;;;0.50;;
11847;SDS011;5983;49.966;8.052;2023-03-22T12:01:31;2.83;;;0.77;;
11847;SDS011;5983;49.966;8.052;2023-03-22T12:04:06;1.03;;;0.83;;
11847;SDS011;5983;49.966;8.052;2023-03-22T12:06:41;1.13;;;0.60;;
11847;SDS011;5983;49.966;8.052;2023-03-22T12:09:16;3.20;;;0.70;;
11847;SDS011;5983;49.966;8.052;2023-03-22T12:11:53;2.10;;;0.63;;
11847;SDS011;5983;49.966;8.052;2023-03-22T12:14:24;3.37;;;0.90;;
11847;SDS011;5983;49.966;8.052;2023-03-22T12:16:58;0.97;;;0.50;;
11847;SDS011;5983;49.966;8.052;2023-03-22T12:19:37;0.83;;;0.60;;
11847;SDS011;5983;49.966;8.052;2023-03-22T12:22:17;0.80;;;0.67;;
11847;SDS011;5983;49.966;8.052;2023-03-22T12:24:49;1.07;;;0.73;;
11847;SDS011;5983;49.966;8.052;2023-03-22T12:27:17;1.20;;;0.57;;
11847;SDS011;5983;49.966;8.052;2023-03-22T12:29:50;4.10;;;0.63;;
11847;SDS011;5983;49.966;8.052;2023-03-22T12:32:25;0.70;;;0.40;;
11847;SDS011;5983;49.966;8.052;2023-03-22T12:34:59;1.87;;;0.83;;
11847;SDS011;5983;49.966;8.052;2023-03-22T12:37:27;1.10;;;0.67;;
11847;SDS011;5983;49.966;8.052;2023-03-22T12:40:00;1.90;;;0.60;;
11847;SDS011;5983;49.966;8.052;2023-03-22T12:42:33;1.23;;;0.70;;
11847;SDS011;5983;49.966;8.052;2023-03-22T12:45:09;2.70;;;0.73;;
11847;SDS011;5983;49.966;8.052;2023-03-22T12:47:45;1.07;;;0.70;;
11847;SDS011;5983;49.966;8.052;2023-03-22T12:50:17;0.70;;;0.50;;
11847;SDS011;5983;49.966;8.052;2023-03-22T12:52:50;1.10;;;0.50;;
11847;SDS011;5983;49.966;8.052;2023-03-22T12:55:22;2.53;;;0.70;;
11847;SDS011;5983;49.966;8.052;2023-03-22T12:57:55;2.57;;;0.70;;
11847;SDS011;5983;49.966;8.052;2023-03-22T13:00:25;6.53;;;1.50;;
11847;SDS011;5983;49.966;8.052;2023-03-22T13:03:00;0.87;;;0.50;;
11847;SDS011;5983;49.966;8.052;2023-03-22T13:05:44;0.50;;;0.40;;
11847;SDS011;5983;49.966;8.052;2023-03-22T13:08:17;1.27;;;0.60;;
11847;SDS011;5983;49.966;8.052;2023-03-22T13:10:59;1.20;;;0.53;;
11847;SDS011;5983;49.966;8.052;2023-03-22T13:13:32;2.47;;;0.67;;
11847;SDS011;5983;49.966;8.052;2023-03-22T13:16:13;1.03;;;0.60;;
11847;SDS011;5983;49.966;8.052;2023-03-22T13:19:15;1.17;;;0.60;;
11847;SDS011;5983;49.966;8.052;2023-03-22T13:27:35;0.60;;;0.40;;
11847;SDS011;5983;49.966;8.052;2023-03-22T13:30:06;0.93;;;0.60;;
11847;SDS011;5983;49.966;8.052;2023-03-22T13:32:47;1.17;;;0.70;;
11847;SDS011;5983;49.966;8.052;2023-03-22T13:35:19;0.60;;;0.50;;
11847;SDS011;5983;49.966;8.052;2023-03-22T13:37:52;1.30;;;0.50;;
11847;SDS011;5983;49.966;8.052;2023-03-22T13:40:32;1.53;;;0.50;;
11847;SDS011;5983;49.966;8.052;2023-03-22T13:43:20;0.50;;;0.40;;
11847;SDS011;5983;49.966;8.052;2023-03-22T13:45:57;1.27;;;0.50;;
11847;SDS011;5983;49.966;8.052;2023-03-22T13:49:15;1.03;;;0.50;;
11847;SDS011;5983;49.966;8.052;2023-03-22T13:52:07;0.67;;;0.50;;
11847;SDS011;5983;49.966;8.052;2023-03-22T13:54:49;1.03;;;0.50;;
11847;SDS011;5983;49.966;8.052;2023-03-22T14:00:16;0.70;;;0.53;;
11847;SDS011;5983;49.966;8.052;2023-03-22T14:03:05;2.90;;;0.80;;
11847;SDS011;5983;49.966;8.052;2023-03-22T14:05:39;1.07;;;0.50;;
11847;SDS011;5983;49.966;8.052;2023-03-22T14:08:19;2.00;;;0.50;;
11847;SDS011;5983;49.966;8.052;2023-03-22T14:10:54;1.50;;;0.70;;
11847;SDS011;5983;49.966;8.052;2023-03-22T14:13:30;2.23;;;0.70;;
11847;SDS011;5983;49.966;8.052;2023-03-22T14:16:05;0.67;;;0.60;;
11847;SDS011;5983;49.966;8.052;2023-03-22T14:18:41;1.57;;;0.50;;
11847;SDS011;5983;49.966;8.052;2023-03-22T14:21:14;0.80;;;0.30;;
11847;SDS011;5983;49.966;8.052;2023-03-22T14:23:57;0.33;;;0.30;;
11847;SDS011;5983;49.966;8.052;2023-03-22T14:26:28;1.10;;;0.40;;
11847;SDS011;5983;49.966;8.052;2023-03-22T14:29:04;0.43;;;0.43;;
11847;SDS011;5983;49.966;8.052;2023-03-22T14:31:33;0.53;;;0.40;;
11847;SDS011;5983;49.966;8.052;2023-03-22T14:34:02;0.50;;;0.43;;
11847;SDS011;5983;49.966;8.052;2023-03-22T14:36:33;1.50;;;0.57;;
11847;SDS011;5983;49.966;8.052;2023-03-22T14:39:10;2.10;;;0.60;;
11847;SDS011;5983;49.966;8.052;2023-03-22T14:41:58;1.00;;;0.73;;
11847;SDS011;5983;49.966;8.052;2023-03-22T14:44:28;1.53;;;0.77;;
11847;SDS011;5983;49.966;8.052;2023-03-22T14:47:02;0.90;;;0.50;;
11847;SDS011;5983;49.966;8.052;2023-03-22T14:49:38;0.53;;;0.40;;
11847;SDS011;5983;49.966;8.052;2023-03-22T14:52:09;0.50;;;0.50;;
11847;SDS011;5983;49.966;8.052;2023-03-22T14:54:42;1.07;;;0.60;;
11847;SDS011;5983;49.966;8.052;2023-03-22T14:57:15;2.70;;;0.50;;
11847;SDS011;5983;49.966;8.052;2023-03-22T14:59:44;0.73;;;0.50;;
11847;SDS011;5983;49.966;8.052;2023-03-22T15:02:19;2.03;;;0.60;;
11847;SDS011;5983;49.966;8.052;2023-03-22T15:04:56;2.20;;;0.40;;
11847;SDS011;5983;49.966;8.052;2023-03-22T15:07:23;0.60;;;0.50;;
11847;SDS011;5983;49.966;8.052;2023-03-22T15:09:52;2.70;;;0.53;;
11847;SDS011;5983;49.966;8.052;2023-03-22T15:12:35;1.13;;;0.50;;
11847;SDS011;5983;49.966;8.052;2023-03-22T15:15:03;0.93;;;0.43;;
11847;SDS011;5983;49.966;8.052;2023-03-22T15:17:31;0.80;;;0.60;;
11847;SDS011;5983;49.966;8.052;2023-03-22T15:20:01;1.47;;;0.70;;
11847;SDS011;5983;49.966;8.052;2023-03-22T15:22:31;0.90;;;0.60;;
11847;SDS011;5983;49.966;8.052;2023-03-22T15:25:00;1.60;;;0.60;;
11847;SDS011;5983;49.966;8.052;2023-03-22T15:27:30;0.83;;;0.50;;
11847;SDS011;5983;49.966;8.052;2023-03-22T15:29:58;0.60;;;0.50;;
11847;SDS011;5983;49.966;8.052;2023-03-22T15:32:26;0.50;;;0.40;;
11847;SDS011;5983;49.966;8.052;2023-03-22T15:34:53;1.17;;;0.70;;
11847;SDS011;5983;49.966;8.052;2023-03-22T15:37:22;1.17;;;0.73;;
11847;SDS011;5983;49.966;8.052;2023-03-22T15:39:55;1.23;;;0.60;;
11847;SDS011;5983;49.966;8.052;2023-03-22T15:42:29;1.53;;;0.70;;
11847;SDS011;5983;49.966;8.052;2023-03-22T15:44:58;2.57;;;0.60;;
11847;SDS011;5983;49.966;8.052;2023-03-22T15:47:42;1.73;;;0.60;;
11847;SDS011;5983;49.966;8.052;2023-03-22T15:50:11;0.87;;;0.60;;
11847;SDS011;5983;49.966;8.052;2023-03-22T15:52:47;5.57;;;3.73;;
11847;SDS011;5983;49.966;8.052;2023-03-22T15:55:15;11.87;;;8.80;;
11847;SDS011;5983;49.966;8.052;2023-03-22T15:57:48;6.90;;;4.27;;